KPAH

Barkley Regional Airport

Paducah, Kentucky, USA
METAR KPAH 181053Z 00000KT 10SM CLR 06/02 A3049 RMK AO2 SLP324 T00560022 $
Observed Flight Rules
Oct-18 @ 10:53 UTC (37 minutes ago) Visual Flight Rules
Visibility Clouds
10 miles
  • Clear skies
Temperatures Readings
Current 6°C / 43°F
Dewpoint 2°C / 36°F
Humidity 76%
Altimeter 30.49" Hg
Pressure 1032.4 hPa
Elevation 119
METAR KPAH 181053Z 00000KT 10SM CLR 06/02 A3049 RMK AO2 SLP324 T00560022 $
Observed Flight Rules
Oct-18 @ 10:53 UTC
(37 minutes ago)
VFR
Clouds
  • Clear skies
Temperature Dewpoint
6°C / 43°F 2°C / 36°F
Humidity Altimeter Pressure
76% 30.49" Hg 1032.4 hPa